Weather at Ibiza Airport

Public forecast

Using degrees Celsius for public forecast. Weather courtesy of forecast.io.

Current aviation weather report (METAR) for Ibiza Airport

Retrieved 2021/01/23 07:30 UTC (0 seconds ago):

LEIB 230730Z 27019G35KT 9999 FEW042 12/04 Q1014 NOSIG

Aviation forecast (TAF) for Ibiza Airport

Retrieved 2021-01-23 03:27 UTC (4 hours ago):

TAF LEIB 230200Z 2303/2403 29020KT 9999 FEW030 TX17/2312Z TN09/2306Z TEMPO 2305/2315 29020G34KT TEMPO 2315/2319 25015KT BECMG 2319/2321 25022G45KT